Adams, Illinois
Current Conditions -  °F | °C
As of 8:54 PM on Wednesday 26 Nov 2014 (Local Time) from KUIN Reporting Station
Light Snow Light Snow  
Wind Chill: 20°   Ceiling: 700
Heat Index: 30°   Visibility: 1.7mi
Dew Point: 27°   Wind: 14mph
Humidity: 88%   Direction: 20°NNE
Pressure: 30.16"   Gusts: NA
Location:  39.8875°N, 91.0352°W
Report Text: KUIN 270254Z AUTO 02012KT 1 3/4SM -SN BR OVC007 M01/M03 A3016 RMK AO2 SNB18 CIG 006V011 SLP222 P0000 60000 T10111028 51027
Loading
Personal Weather Stations






























Interactive Weather Map New forecast layout! Learn more

10-Day Weather Forecast

Advertisements
Track Severe Weather on mobile